Terminal Aerodrome Forecast
Issued by NWS Upton, NY

Home | Current Version | Previous Version | Text Only | Print | Product List | Glossary On
Versions: 1 2 3 4 5 6 7 8 9 10 11 12 13 14 15 16 17 18 19 20 21 22 23 24 25 26 27 28 29 30 31 32 33
000
FTUS41 KOKX 291132
TAFLGA
TAF
KLGA 291132Z 2912/3012 23010KT P6SM SCT150 BKN200
     FM291500 21012G19KT P6SM FEW050 SCT200
     FM291700 20016G23KT P6SM SCT050 SCT250
     FM291900 18020G27KT P6SM SCT050 SCT250
     FM300000 20019G25KT P6SM SCT050 SCT080 WS020/24040KT
     FM300300 22014G20KT P6SM SCT050 SCT080 WS020/24040KT
     FM301100 23010KT P6SM FEW050 SCT080=

USA.gov is the U.S. government's official web portal to all federal, state and local government web resources and services.